Elizabeth, Australia
Current Conditions -  °F | °C
As of 6:00 PM on Sunday 26 Oct 2014 (Local Time) from YPAD Reporting Station
Clear Clear  
Wind Chill: 84°   Ceiling: Unl
Heat Index: 84°   Visibility: 6mi
Dew Point: 52°   Wind: 13mph
Humidity: 33%   Direction: 30°NNE
Pressure: 29.65"   Gusts: NA
Location:  34.71°S, 138.67°E
Report Text: YPAD 260800Z 03011KT CAVOK 29/11 Q1004 FM0900 23018KT 9999 -SHRA SCT015 SCT025
Loading
Personal Weather Stations






























Interactive Weather Map
Tropical Storm Tracking
New forecast layout! Learn more

10-Day Weather Forecast

Advertisements
Track Severe Weather on mobile